Carriage Hill, Washington
Current Conditions -  °F | °C
As of 9:15 AM on Thursday 27 Nov 2014 (Local Time) from KCLS Reporting Station
Haze Haze  
Wind Chill: 12°   Ceiling: 2900
Heat Index: 12°   Visibility: 4mi
Dew Point: 12°   Wind: 9mph
Humidity: 100%   Direction: 160°SSE
Pressure: 29.89"   Gusts: 15mph
Location:  46.5485°N, 122.112°W
Report Text: KCLS 271715Z AUTO 16008G13KT 4SM BR FEW009 SCT012 BKN029 12/12 A2989 RMK AO2
Loading
Personal Weather Stations






























Interactive Weather Map New forecast layout! Learn more

10-Day Weather Forecast

Advertisements
Track Severe Weather on mobile